Aviosuperficie Chiasiellis

IT-0405 · Friuli Venezia Giulia, 意大利

罗盘
风向 的 风向 的 风向 到 风向 050° Aviosuperficie Chiasiellis 16/34
风向 到 风: 13 kt, 阵阵 23 kt, 4 beaufort

4 kt

12 kt
改变
0 1.000 2.000 3.000 4.000 5.000
METAR LIVT 012255Z AUTO 05013G23KT 340V110 //// 07/02 Q1018

METAR Aviosuperficie Chiasiellis - IT-0405

Aviosuperficie Chiasiellis是,意大利中的小机场。 该机场有一条跑道: 16/34. 该领域的国际民航组织标志是IT-0405.

这份报告是针对2022年12月1日 23:55, 当地时间在Trieste进行的。

机场观察

风向为050°,速度为13 kt。 已测得23 kt的阵风。 风向在340°和110°之间变化。

温度为7 °C,阵风为2 °C。 露点为2 °C,相对湿度为71%。 海平面上的气压为1018 hPa (QNH)。

白天

今天,太阳从07:28升起,在16:24降落。 这适用于Aviosuperficie Chiasiellis,世界夏令时可能有所不同。 当地时间与世界标准时间之间的时差为+1 小时。 当前,没有夏令时有效。

公司介绍

我们没有关于这个机场的公司信息。

体会

到Vliegles.nl去找飞行课程,跳伞和其他飞行体验。 浏览页面,了解Aviosuperficie Chiasiellis附近所有可用的活动。 你也可以使用搜索功能来寻找你所在地附近的特定飞行课程、跳伞或其他飞行体验。

跑道

Id 标题 侧风 逆风 侧风 %
16/34 160°-340° 12-22 kt 4-8 kt 94 %

逆风成分最大的方向会被突出显示,并用于横风计算。 这并不一定意味着这个方向在使用。

温度 & 天气

温度 7 °C
露点 2 °C
相对湿度 71%
风寒 2 °C
Kp-index 4 (0-9)

白天

日出
07:25 (7:12)
中午
11:53
日落
16:22

小工具

你想在你的网站上有一个关于Aviosuperficie Chiasiellis的当前航空天气(METAR)的小部件吗?

显示HTML代码

我们和第三方通过cookies跟踪您在我们网站上的互联网行为。如果你继续,我们认为你同意我们的饼干政策